Islamorada, FL (33036)

7:57 AM EST on December 06, 2016 (GMT -0500)
Oceana | | Change Station

Elev 26 ft 24.92 °N, 80.63 °W | Updated 2 seconds ago

Clear
Clear
79.0 °F
Feels Like 83 °F
N
4.5
Wind Variable Wind from SW
Gusts 4.9 mph

Today
High -- | Low -- °F
--% Chance of Precip.
Yesterday
High -- | Low -- °F
Precip. -- in
Pressure 29.98 in
Visibility 10.0 miles
Clouds Clear
Heat Index 83 °F
Dew Point 75 °F
Humidity 87%
Rainfall 0.00 in
Snow Depth Not available.
6:54 AM 5:33 PM
Waxing Crescent, 41% visible
METAR KHST 061158Z AUTO 17005KT 10SM CLR 25/25 A2997 RMK AO2 SLP152 T02460246 10253 20246 53007
Pressure 29.98 in
Visibility 10.0 miles
Clouds Clear
Heat Index 83 °F
Dew Point 75 °F
Humidity 87%
Rainfall 0.00 in
Snow Depth Not available.
6:54 AM 5:33 PM
Waxing Crescent, 41% visible
METAR KHST 061158Z AUTO 17005KT 10SM CLR 25/25 A2997 RMK AO2 SLP152 T02460246 10253 20246 53007

10-Day Weather Forecast

Almanac

Astronomy

Dec. 06, 2016 Rise Set
Actual Time
Civil Twilight
Nautical Twilight
Astronomical Twilight
Moon
Length of Visible Light
Length of Day
Tomorrow will be .
, % of the Moon is Illuminated

Today's Extremes

State Highs State Lows

Community

WunderPhotos

Upload Photos

1,955,938 photos uploaded!

WunderBlog® & News

Nearby

Air Quality

  Air Quality AQ Index Pollutant
Not available.

Snow Depth

Station Depth Elevation

Earthquake Activity

City Distance Mag. Time & Date
Minimum magnitude displayed is 2.5.

Coastal Water Temperatures

Place Temperature

Stations

Nearby Weather Stations

Station Location Temp. Windchill Dew Point Humidity Wind Precip. Elev Updated Type
                   

Watches & Warnings

There are currently no watches in effect.